sensor_id;sensor_type;location;lat;lon;timestamp;P1;durP1;ratioP1;P2;durP2;ratioP2
11986;SDS011;6053;51.382;6.768;2023-07-28T00:00:48;0.50;;;0.50;;
11986;SDS011;6053;51.382;6.768;2023-07-28T00:03:18;1.00;;;0.70;;
11986;SDS011;6053;51.382;6.768;2023-07-28T00:05:49;1.10;;;0.50;;
11986;SDS011;6053;51.382;6.768;2023-07-28T00:08:18;0.38;;;0.32;;
11986;SDS011;6053;51.382;6.768;2023-07-28T00:10:46;0.50;;;0.50;;
11986;SDS011;6053;51.382;6.768;2023-07-28T00:13:15;0.32;;;0.32;;
11986;SDS011;6053;51.382;6.768;2023-07-28T00:15:53;1.00;;;0.68;;
11986;SDS011;6053;51.382;6.768;2023-07-28T00:18:23;0.60;;;0.30;;
11986;SDS011;6053;51.382;6.768;2023-07-28T00:20:54;0.20;;;0.20;;
11986;SDS011;6053;51.382;6.768;2023-07-28T00:23:23;1.50;;;0.70;;
11986;SDS011;6053;51.382;6.768;2023-07-28T00:25:58;0.50;;;0.50;;
11986;SDS011;6053;51.382;6.768;2023-07-28T00:28:29;0.88;;;0.60;;
11986;SDS011;6053;51.382;6.768;2023-07-28T00:30:58;2.33;;;0.60;;
11986;SDS011;6053;51.382;6.768;2023-07-28T00:33:36;0.73;;;0.65;;
11986;SDS011;6053;51.382;6.768;2023-07-28T00:36:05;2.10;;;0.80;;
11986;SDS011;6053;51.382;6.768;2023-07-28T00:38:33;0.57;;;0.57;;
11986;SDS011;6053;51.382;6.768;2023-07-28T00:41:02;1.15;;;0.80;;
11986;SDS011;6053;51.382;6.768;2023-07-28T00:43:31;0.55;;;0.55;;
11986;SDS011;6053;51.382;6.768;2023-07-28T00:46:02;2.20;;;1.00;;
11986;SDS011;6053;51.382;6.768;2023-07-28T00:48:32;0.63;;;0.63;;
11986;SDS011;6053;51.382;6.768;2023-07-28T00:51:01;0.35;;;0.35;;
11986;SDS011;6053;51.382;6.768;2023-07-28T00:53:30;0.70;;;0.70;;
11986;SDS011;6053;51.382;6.768;2023-07-28T00:56:02;1.30;;;0.80;;
11986;SDS011;6053;51.382;6.768;2023-07-28T00:58:32;0.67;;;0.67;;
11986;SDS011;6053;51.382;6.768;2023-07-28T01:01:04;1.65;;;0.70;;
11986;SDS011;6053;51.382;6.768;2023-07-28T01:03:34;0.95;;;0.70;;
11986;SDS011;6053;51.382;6.768;2023-07-28T01:06:11;0.93;;;0.73;;
11986;SDS011;6053;51.382;6.768;2023-07-28T01:08:49;0.70;;;0.70;;
11986;SDS011;6053;51.382;6.768;2023-07-28T01:11:24;0.70;;;0.70;;
11986;SDS011;6053;51.382;6.768;2023-07-28T01:14:04;0.85;;;0.70;;
11986;SDS011;6053;51.382;6.768;2023-07-28T01:16:33;0.80;;;0.80;;
11986;SDS011;6053;51.382;6.768;2023-07-28T01:19:09;1.48;;;0.70;;
11986;SDS011;6053;51.382;6.768;2023-07-28T01:21:39;1.20;;;0.70;;
11986;SDS011;6053;51.382;6.768;2023-07-28T01:24:21;1.40;;;0.77;;
11986;SDS011;6053;51.382;6.768;2023-07-28T01:26:58;2.55;;;0.45;;
11986;SDS011;6053;51.382;6.768;2023-07-28T01:29:27;0.33;;;0.33;;
11986;SDS011;6053;51.382;6.768;2023-07-28T01:31:58;0.63;;;0.50;;
11986;SDS011;6053;51.382;6.768;2023-07-28T01:34:30;0.70;;;0.52;;
11986;SDS011;6053;51.382;6.768;2023-07-28T01:36:59;1.17;;;0.77;;
11986;SDS011;6053;51.382;6.768;2023-07-28T01:39:30;0.90;;;0.50;;
11986;SDS011;6053;51.382;6.768;2023-07-28T01:42:01;0.70;;;0.70;;
11986;SDS011;6053;51.382;6.768;2023-07-28T01:48:17;0.70;;;0.32;;
11986;SDS011;6053;51.382;6.768;2023-07-28T01:50:46;0.80;;;0.50;;
11986;SDS011;6053;51.382;6.768;2023-07-28T01:53:31;0.30;;;0.30;;
11986;SDS011;6053;51.382;6.768;2023-07-28T01:56:03;0.32;;;0.32;;
11986;SDS011;6053;51.382;6.768;2023-07-28T01:58:36;0.37;;;0.37;;
11986;SDS011;6053;51.382;6.768;2023-07-28T02:01:05;0.70;;;0.70;;
11986;SDS011;6053;51.382;6.768;2023-07-28T02:03:36;1.52;;;0.50;;
11986;SDS011;6053;51.382;6.768;2023-07-28T02:06:05;1.00;;;0.55;;
11986;SDS011;6053;51.382;6.768;2023-07-28T02:08:33;0.70;;;0.50;;
11986;SDS011;6053;51.382;6.768;2023-07-28T02:11:07;0.20;;;0.20;;
11986;SDS011;6053;51.382;6.768;2023-07-28T02:13:37;1.43;;;0.90;;
11986;SDS011;6053;51.382;6.768;2023-07-28T02:16:06;0.28;;;0.28;;
11986;SDS011;6053;51.382;6.768;2023-07-28T02:18:34;0.50;;;0.50;;
11986;SDS011;6053;51.382;6.768;2023-07-28T02:21:07;0.90;;;0.47;;
11986;SDS011;6053;51.382;6.768;2023-07-28T02:23:39;0.70;;;0.45;;
11986;SDS011;6053;51.382;6.768;2023-07-28T02:26:08;0.38;;;0.38;;
11986;SDS011;6053;51.382;6.768;2023-07-28T02:28:38;0.35;;;0.35;;
11986;SDS011;6053;51.382;6.768;2023-07-28T02:31:06;0.30;;;0.30;;
11986;SDS011;6053;51.382;6.768;2023-07-28T02:33:35;1.00;;;0.68;;
11986;SDS011;6053;51.382;6.768;2023-07-28T02:36:04;0.32;;;0.32;;
11986;SDS011;6053;51.382;6.768;2023-07-28T02:38:36;0.60;;;0.60;;
11986;SDS011;6053;51.382;6.768;2023-07-28T02:41:04;0.30;;;0.30;;
11986;SDS011;6053;51.382;6.768;2023-07-28T02:43:33;0.40;;;0.40;;
11986;SDS011;6053;51.382;6.768;2023-07-28T02:46:17;0.50;;;0.30;;
11986;SDS011;6053;51.382;6.768;2023-07-28T02:48:46;0.40;;;0.40;;
11986;SDS011;6053;51.382;6.768;2023-07-28T02:51:15;0.80;;;0.50;;
11986;SDS011;6053;51.382;6.768;2023-07-28T02:53:49;1.10;;;0.30;;
11986;SDS011;6053;51.382;6.768;2023-07-28T02:56:18;0.45;;;0.45;;
11986;SDS011;6053;51.382;6.768;2023-07-28T02:58:48;0.40;;;0.40;;
11986;SDS011;6053;51.382;6.768;2023-07-28T03:01:21;0.38;;;0.38;;
11986;SDS011;6053;51.382;6.768;2023-07-28T03:03:53;0.40;;;0.40;;
11986;SDS011;6053;51.382;6.768;2023-07-28T03:06:24;0.50;;;0.50;;
11986;SDS011;6053;51.382;6.768;2023-07-28T03:08:53;0.20;;;0.20;;
11986;SDS011;6053;51.382;6.768;2023-07-28T03:11:36;0.50;;;0.50;;
11986;SDS011;6053;51.382;6.768;2023-07-28T03:14:07;2.70;;;0.40;;
11986;SDS011;6053;51.382;6.768;2023-07-28T03:16:43;0.43;;;0.43;;
11986;SDS011;6053;51.382;6.768;2023-07-28T03:19:12;0.90;;;0.60;;
11986;SDS011;6053;51.382;6.768;2023-07-28T03:21:40;0.45;;;0.45;;
11986;SDS011;6053;51.382;6.768;2023-07-28T03:24:12;0.70;;;0.25;;
11986;SDS011;6053;51.382;6.768;2023-07-28T03:26:41;0.60;;;0.20;;
11986;SDS011;6053;51.382;6.768;2023-07-28T03:29:09;0.50;;;0.50;;
11986;SDS011;6053;51.382;6.768;2023-07-28T03:31:38;0.40;;;0.40;;
11986;SDS011;6053;51.382;6.768;2023-07-28T03:34:08;0.50;;;0.50;;
11986;SDS011;6053;51.382;6.768;2023-07-28T03:36:37;0.50;;;0.50;;
11986;SDS011;6053;51.382;6.768;2023-07-28T03:39:05;0.60;;;0.60;;
11986;SDS011;6053;51.382;6.768;2023-07-28T03:42:04;0.60;;;0.50;;
11986;SDS011;6053;51.382;6.768;2023-07-28T03:44:33;0.50;;;0.45;;
11986;SDS011;6053;51.382;6.768;2023-07-28T03:47:07;0.47;;;0.47;;
11986;SDS011;6053;51.382;6.768;2023-07-28T03:49:36;0.60;;;0.50;;
11986;SDS011;6053;51.382;6.768;2023-07-28T03:52:05;0.10;;;0.10;;
11986;SDS011;6053;51.382;6.768;2023-07-28T03:54:34;0.10;;;0.05;;
11986;SDS011;6053;51.382;6.768;2023-07-28T03:57:02;0.30;;;0.30;;
11986;SDS011;6053;51.382;6.768;2023-07-28T03:59:36;0.20;;;0.20;;
11986;SDS011;6053;51.382;6.768;2023-07-28T04:02:04;0.30;;;0.22;;
11986;SDS011;6053;51.382;6.768;2023-07-28T04:04:37;0.60;;;0.28;;
11986;SDS011;6053;51.382;6.768;2023-07-28T04:07:07;0.22;;;0.22;;
11986;SDS011;6053;51.382;6.768;2023-07-28T04:09:38;0.40;;;0.40;;
11986;SDS011;6053;51.382;6.768;2023-07-28T04:12:07;0.60;;;0.30;;
11986;SDS011;6053;51.382;6.768;2023-07-28T04:14:38;0.30;;;0.30;;
11986;SDS011;6053;51.382;6.768;2023-07-28T04:17:09;0.20;;;0.20;;
11986;SDS011;6053;51.382;6.768;2023-07-28T04:19:44;0.30;;;0.30;;
11986;SDS011;6053;51.382;6.768;2023-07-28T04:22:13;0.10;;;0.10;;
11986;SDS011;6053;51.382;6.768;2023-07-28T04:24:53;0.30;;;0.30;;
11986;SDS011;6053;51.382;6.768;2023-07-28T04:27:31;0.20;;;0.20;;
11986;SDS011;6053;51.382;6.768;2023-07-28T04:29:59;0.20;;;0.20;;
11986;SDS011;6053;51.382;6.768;2023-07-28T04:32:32;0.30;;;0.30;;
11986;SDS011;6053;51.382;6.768;2023-07-28T04:35:05;0.10;;;0.10;;
11986;SDS011;6053;51.382;6.768;2023-07-28T04:37:40;0.30;;;0.30;;
11986;SDS011;6053;51.382;6.768;2023-07-28T04:40:12;0.60;;;0.15;;
11986;SDS011;6053;51.382;6.768;2023-07-28T04:42:42;0.00;;;0.00;;
11986;SDS011;6053;51.382;6.768;2023-07-28T04:45:19;0.20;;;0.20;;
11986;SDS011;6053;51.382;6.768;2023-07-28T04:47:49;0.00;;;0.00;;
11986;SDS011;6053;51.382;6.768;2023-07-28T04:50:21;0.10;;;0.10;;
11986;SDS011;6053;51.382;6.768;2023-07-28T04:52:50;0.20;;;0.20;;
11986;SDS011;6053;51.382;6.768;2023-07-28T04:55:21;0.20;;;0.20;;
11986;SDS011;6053;51.382;6.768;2023-07-28T04:57:59;0.10;;;0.10;;
11986;SDS011;6053;51.382;6.768;2023-07-28T05:00:33;0.10;;;0.10;;
11986;SDS011;6053;51.382;6.768;2023-07-28T05:03:05;0.10;;;0.10;;
11986;SDS011;6053;51.382;6.768;2023-07-28T05:05:37;0.32;;;0.32;;
11986;SDS011;6053;51.382;6.768;2023-07-28T05:08:06;0.20;;;0.20;;
11986;SDS011;6053;51.382;6.768;2023-07-28T05:10:36;0.20;;;0.20;;
11986;SDS011;6053;51.382;6.768;2023-07-28T05:13:07;0.10;;;0.10;;
11986;SDS011;6053;51.382;6.768;2023-07-28T05:15:39;0.10;;;0.10;;
11986;SDS011;6053;51.382;6.768;2023-07-28T05:18:09;1.40;;;0.20;;
11986;SDS011;6053;51.382;6.768;2023-07-28T05:20:40;0.10;;;0.10;;
11986;SDS011;6053;51.382;6.768;2023-07-28T05:23:09;0.10;;;0.10;;
11986;SDS011;6053;51.382;6.768;2023-07-28T05:25:44;0.50;;;0.50;;
11986;SDS011;6053;51.382;6.768;2023-07-28T05:28:18;0.20;;;0.20;;
11986;SDS011;6053;51.382;6.768;2023-07-28T05:30:47;0.85;;;0.75;;
11986;SDS011;6053;51.382;6.768;2023-07-28T05:33:23;0.67;;;0.47;;
11986;SDS011;6053;51.382;6.768;2023-07-28T05:36:01;0.55;;;0.55;;
11986;SDS011;6053;51.382;6.768;2023-07-28T05:38:32;0.55;;;0.55;;
11986;SDS011;6053;51.382;6.768;2023-07-28T05:41:09;0.70;;;0.40;;
11986;SDS011;6053;51.382;6.768;2023-07-28T05:43:39;0.17;;;0.17;;
11986;SDS011;6053;51.382;6.768;2023-07-28T05:46:17;0.50;;;0.47;;
11986;SDS011;6053;51.382;6.768;2023-07-28T05:48:47;0.80;;;0.80;;
11986;SDS011;6053;51.382;6.768;2023-07-28T05:51:16;1.40;;;1.10;;
11986;SDS011;6053;51.382;6.768;2023-07-28T05:53:44;0.20;;;0.20;;
11986;SDS011;6053;51.382;6.768;2023-07-28T05:56:16;0.60;;;0.50;;
11986;SDS011;6053;51.382;6.768;2023-07-28T05:58:48;0.70;;;0.70;;
11986;SDS011;6053;51.382;6.768;2023-07-28T06:01:17;0.25;;;0.25;;
11986;SDS011;6053;51.382;6.768;2023-07-28T06:03:47;0.52;;;0.52;;
11986;SDS011;6053;51.382;6.768;2023-07-28T06:06:18;0.40;;;0.40;;
11986;SDS011;6053;51.382;6.768;2023-07-28T06:08:45;1.00;;;0.80;;
11986;SDS011;6053;51.382;6.768;2023-07-28T06:11:14;0.50;;;0.30;;
11986;SDS011;6053;51.382;6.768;2023-07-28T06:13:46;0.90;;;0.90;;
11986;SDS011;6053;51.382;6.768;2023-07-28T06:16:15;0.40;;;0.40;;
11986;SDS011;6053;51.382;6.768;2023-07-28T06:18:44;0.20;;;0.20;;
11986;SDS011;6053;51.382;6.768;2023-07-28T06:21:17;1.50;;;1.08;;
11986;SDS011;6053;51.382;6.768;2023-07-28T06:23:46;1.17;;;0.85;;
11986;SDS011;6053;51.382;6.768;2023-07-28T06:26:20;1.30;;;1.30;;
11986;SDS011;6053;51.382;6.768;2023-07-28T06:28:52;0.70;;;0.60;;
11986;SDS011;6053;51.382;6.768;2023-07-28T06:31:20;1.63;;;0.90;;
11986;SDS011;6053;51.382;6.768;2023-07-28T06:33:50;0.75;;;0.75;;
11986;SDS011;6053;51.382;6.768;2023-07-28T06:36:22;1.10;;;1.10;;
11986;SDS011;6053;51.382;6.768;2023-07-28T06:38:57;0.70;;;0.70;;
11986;SDS011;6053;51.382;6.768;2023-07-28T06:41:33;1.02;;;1.02;;
11986;SDS011;6053;51.382;6.768;2023-07-28T06:44:08;1.00;;;1.00;;
11986;SDS011;6053;51.382;6.768;2023-07-28T06:46:37;1.10;;;1.10;;
11986;SDS011;6053;51.382;6.768;2023-07-28T06:49:07;0.80;;;0.80;;
11986;SDS011;6053;51.382;6.768;2023-07-28T06:51:35;1.13;;;1.10;;
11986;SDS011;6053;51.382;6.768;2023-07-28T06:54:10;2.70;;;1.17;;
11986;SDS011;6053;51.382;6.768;2023-07-28T06:56:42;1.23;;;1.23;;
11986;SDS011;6053;51.382;6.768;2023-07-28T06:59:11;0.90;;;0.90;;
11986;SDS011;6053;51.382;6.768;2023-07-28T07:01:45;1.38;;;1.27;;
11986;SDS011;6053;51.382;6.768;2023-07-28T07:04:15;0.75;;;0.75;;
11986;SDS011;6053;51.382;6.768;2023-07-28T07:06:43;1.10;;;1.10;;
11986;SDS011;6053;51.382;6.768;2023-07-28T07:09:12;0.40;;;0.40;;
11986;SDS011;6053;51.382;6.768;2023-07-28T07:11:41;3.15;;;1.30;;
11986;SDS011;6053;51.382;6.768;2023-07-28T07:14:15;0.80;;;0.80;;
11986;SDS011;6053;51.382;6.768;2023-07-28T07:16:48;1.60;;;1.50;;
11986;SDS011;6053;51.382;6.768;2023-07-28T07:19:18;1.17;;;1.08;;
11986;SDS011;6053;51.382;6.768;2023-07-28T07:21:59;2.47;;;1.53;;
11986;SDS011;6053;51.382;6.768;2023-07-28T07:24:33;1.60;;;1.50;;
11986;SDS011;6053;51.382;6.768;2023-07-28T07:27:02;1.10;;;0.73;;
11986;SDS011;6053;51.382;6.768;2023-07-28T07:29:43;0.57;;;0.57;;
11986;SDS011;6053;51.382;6.768;2023-07-28T07:32:15;1.27;;;1.20;;
11986;SDS011;6053;51.382;6.768;2023-07-28T07:34:48;2.00;;;0.90;;
11986;SDS011;6053;51.382;6.768;2023-07-28T07:37:17;0.50;;;0.50;;
11986;SDS011;6053;51.382;6.768;2023-07-28T07:39:45;0.40;;;0.40;;
11986;SDS011;6053;51.382;6.768;2023-07-28T07:42:17;0.80;;;0.73;;
11986;SDS011;6053;51.382;6.768;2023-07-28T07:45:01;0.30;;;0.30;;
11986;SDS011;6053;51.382;6.768;2023-07-28T07:47:32;1.70;;;1.00;;
11986;SDS011;6053;51.382;6.768;2023-07-28T07:50:14;1.10;;;0.57;;
11986;SDS011;6053;51.382;6.768;2023-07-28T07:52:42;1.50;;;1.20;;
11986;SDS011;6053;51.382;6.768;2023-07-28T07:55:17;0.77;;;0.77;;
11986;SDS011;6053;51.382;6.768;2023-07-28T07:57:52;0.80;;;0.80;;
11986;SDS011;6053;51.382;6.768;2023-07-28T08:00:24;1.30;;;0.90;;
11986;SDS011;6053;51.382;6.768;2023-07-28T08:02:56;1.50;;;0.70;;
11986;SDS011;6053;51.382;6.768;2023-07-28T08:05:33;0.90;;;0.63;;
11986;SDS011;6053;51.382;6.768;2023-07-28T08:08:02;0.77;;;0.77;;
11986;SDS011;6053;51.382;6.768;2023-07-28T08:10:31;0.60;;;0.60;;
11986;SDS011;6053;51.382;6.768;2023-07-28T08:13:13;0.63;;;0.63;;
11986;SDS011;6053;51.382;6.768;2023-07-28T08:15:42;0.90;;;0.90;;
11986;SDS011;6053;51.382;6.768;2023-07-28T08:18:11;0.60;;;0.60;;
11986;SDS011;6053;51.382;6.768;2023-07-28T08:20:51;1.85;;;0.80;;
11986;SDS011;6053;51.382;6.768;2023-07-28T08:23:22;1.00;;;0.80;;
11986;SDS011;6053;51.382;6.768;2023-07-28T08:25:51;0.60;;;0.60;;
11986;SDS011;6053;51.382;6.768;2023-07-28T08:28:34;0.90;;;0.90;;
11986;SDS011;6053;51.382;6.768;2023-07-28T08:31:09;0.52;;;0.52;;
11986;SDS011;6053;51.382;6.768;2023-07-28T08:33:38;0.85;;;0.80;;
11986;SDS011;6053;51.382;6.768;2023-07-28T08:36:07;0.83;;;0.80;;
11986;SDS011;6053;51.382;6.768;2023-07-28T08:38:39;0.68;;;0.63;;
11986;SDS011;6053;51.382;6.768;2023-07-28T08:41:07;1.00;;;0.50;;
11986;SDS011;6053;51.382;6.768;2023-07-28T08:43:36;0.60;;;0.55;;
11986;SDS011;6053;51.382;6.768;2023-07-28T08:46:10;2.05;;;0.50;;
11986;SDS011;6053;51.382;6.768;2023-07-28T08:48:40;1.10;;;0.80;;
11986;SDS011;6053;51.382;6.768;2023-07-28T08:51:13;0.50;;;0.50;;
11986;SDS011;6053;51.382;6.768;2023-07-28T08:53:42;0.75;;;0.70;;
11986;SDS011;6053;51.382;6.768;2023-07-28T08:56:15;0.68;;;0.68;;
11986;SDS011;6053;51.382;6.768;2023-07-28T08:58:45;0.70;;;0.70;;
11986;SDS011;6053;51.382;6.768;2023-07-28T09:01:16;0.68;;;0.68;;
11986;SDS011;6053;51.382;6.768;2023-07-28T09:03:50;0.70;;;0.70;;
11986;SDS011;6053;51.382;6.768;2023-07-28T09:06:20;1.80;;;0.93;;
11986;SDS011;6053;51.382;6.768;2023-07-28T09:08:57;0.60;;;0.50;;
11986;SDS011;6053;51.382;6.768;2023-07-28T09:11:26;1.42;;;0.80;;
11986;SDS011;6053;51.382;6.768;2023-07-28T09:13:59;0.70;;;0.70;;
11986;SDS011;6053;51.382;6.768;2023-07-28T09:16:28;0.70;;;0.70;;
11986;SDS011;6053;51.382;6.768;2023-07-28T09:19:04;0.70;;;0.70;;
11986;SDS011;6053;51.382;6.768;2023-07-28T09:21:35;1.00;;;0.55;;
11986;SDS011;6053;51.382;6.768;2023-07-28T09:24:06;1.00;;;0.67;;
11986;SDS011;6053;51.382;6.768;2023-07-28T09:26:36;0.40;;;0.40;;
11986;SDS011;6053;51.382;6.768;2023-07-28T09:29:20;0.60;;;0.60;;
11986;SDS011;6053;51.382;6.768;2023-07-28T09:31:49;0.90;;;0.75;;
11986;SDS011;6053;51.382;6.768;2023-07-28T09:34:27;0.90;;;0.90;;
11986;SDS011;6053;51.382;6.768;2023-07-28T09:37:00;0.90;;;0.90;;
11986;SDS011;6053;51.382;6.768;2023-07-28T09:39:38;0.52;;;0.43;;
11986;SDS011;6053;51.382;6.768;2023-07-28T09:42:09;0.60;;;0.60;;
11986;SDS011;6053;51.382;6.768;2023-07-28T09:44:43;0.63;;;0.63;;
11986;SDS011;6053;51.382;6.768;2023-07-28T09:47:12;0.68;;;0.60;;
11986;SDS011;6053;51.382;6.768;2023-07-28T09:49:41;0.55;;;0.55;;
11986;SDS011;6053;51.382;6.768;2023-07-28T09:52:16;0.95;;;0.68;;
11986;SDS011;6053;51.382;6.768;2023-07-28T09:54:45;0.75;;;0.75;;
11986;SDS011;6053;51.382;6.768;2023-07-28T09:57:20;1.35;;;0.77;;
11986;SDS011;6053;51.382;6.768;2023-07-28T09:59:53;1.20;;;0.63;;
11986;SDS011;6053;51.382;6.768;2023-07-28T10:02:24;0.88;;;0.55;;
11986;SDS011;6053;51.382;6.768;2023-07-28T10:04:53;0.50;;;0.50;;
11986;SDS011;6053;51.382;6.768;2023-07-28T10:10:22;1.17;;;0.80;;
11986;SDS011;6053;51.382;6.768;2023-07-28T10:12:54;0.65;;;0.60;;
11986;SDS011;6053;51.382;6.768;2023-07-28T10:15:30;1.60;;;0.80;;
11986;SDS011;6053;51.382;6.768;2023-07-28T10:18:05;1.05;;;0.80;;
11986;SDS011;6053;51.382;6.768;2023-07-28T10:20:36;0.73;;;0.73;;
11986;SDS011;6053;51.382;6.768;2023-07-28T10:23:12;0.80;;;0.80;;
11986;SDS011;6053;51.382;6.768;2023-07-28T10:25:42;0.60;;;0.60;;
11986;SDS011;6053;51.382;6.768;2023-07-28T10:28:27;2.20;;;0.80;;
11986;SDS011;6053;51.382;6.768;2023-07-28T10:30:59;1.30;;;0.70;;
11986;SDS011;6053;51.382;6.768;2023-07-28T10:33:30;0.90;;;0.60;;
11986;SDS011;6053;51.382;6.768;2023-07-28T10:36:12;1.08;;;0.55;;
11986;SDS011;6053;51.382;6.768;2023-07-28T10:38:45;0.52;;;0.50;;
11986;SDS011;6053;51.382;6.768;2023-07-28T10:41:31;0.43;;;0.43;;
11986;SDS011;6053;51.382;6.768;2023-07-28T10:44:06;0.40;;;0.40;;
11986;SDS011;6053;51.382;6.768;2023-07-28T10:46:35;1.40;;;0.60;;
11986;SDS011;6053;51.382;6.768;2023-07-28T10:49:05;1.00;;;0.60;;
11986;SDS011;6053;51.382;6.768;2023-07-28T10:51:40;0.75;;;0.52;;
11986;SDS011;6053;51.382;6.768;2023-07-28T10:54:09;0.50;;;0.50;;
11986;SDS011;6053;51.382;6.768;2023-07-28T10:56:42;1.20;;;0.57;;
11986;SDS011;6053;51.382;6.768;2023-07-28T10:59:10;0.90;;;0.40;;
11986;SDS011;6053;51.382;6.768;2023-07-28T11:01:39;0.50;;;0.50;;
11986;SDS011;6053;51.382;6.768;2023-07-28T11:04:16;0.30;;;0.30;;
11986;SDS011;6053;51.382;6.768;2023-07-28T11:06:46;1.00;;;0.40;;
11986;SDS011;6053;51.382;6.768;2023-07-28T11:09:21;0.30;;;0.30;;
11986;SDS011;6053;51.382;6.768;2023-07-28T11:11:57;0.40;;;0.40;;
11986;SDS011;6053;51.382;6.768;2023-07-28T11:14:26;0.20;;;0.20;;
11986;SDS011;6053;51.382;6.768;2023-07-28T11:16:56;0.40;;;0.40;;
11986;SDS011;6053;51.382;6.768;2023-07-28T11:19:24;0.22;;;0.22;;
11986;SDS011;6053;51.382;6.768;2023-07-28T11:21:54;1.10;;;0.30;;
11986;SDS011;6053;51.382;6.768;2023-07-28T11:24:26;0.55;;;0.30;;
11986;SDS011;6053;51.382;6.768;2023-07-28T11:26:56;0.20;;;0.20;;
11986;SDS011;6053;51.382;6.768;2023-07-28T11:29:34;2.25;;;0.55;;
11986;SDS011;6053;51.382;6.768;2023-07-28T11:32:04;1.30;;;0.63;;
11986;SDS011;6053;51.382;6.768;2023-07-28T11:34:36;1.15;;;0.82;;
11986;SDS011;6053;51.382;6.768;2023-07-28T11:37:05;0.65;;;0.60;;
11986;SDS011;6053;51.382;6.768;2023-07-28T11:39:39;0.47;;;0.47;;
11986;SDS011;6053;51.382;6.768;2023-07-28T11:42:12;0.70;;;0.40;;
11986;SDS011;6053;51.382;6.768;2023-07-28T11:44:42;0.40;;;0.40;;
11986;SDS011;6053;51.382;6.768;2023-07-28T11:47:14;0.80;;;0.40;;
11986;SDS011;6053;51.382;6.768;2023-07-28T11:49:48;0.82;;;0.40;;
11986;SDS011;6053;51.382;6.768;2023-07-28T11:52:18;2.43;;;0.60;;
11986;SDS011;6053;51.382;6.768;2023-07-28T11:54:52;1.08;;;0.90;;
11986;SDS011;6053;51.382;6.768;2023-07-28T11:57:21;0.43;;;0.43;;
11986;SDS011;6053;51.382;6.768;2023-07-28T11:59:55;0.30;;;0.30;;
11986;SDS011;6053;51.382;6.768;2023-07-28T12:02:24;0.17;;;0.10;;
11986;SDS011;6053;51.382;6.768;2023-07-28T12:04:54;0.20;;;0.20;;
11986;SDS011;6053;51.382;6.768;2023-07-28T12:07:29;0.45;;;0.20;;
11986;SDS011;6053;51.382;6.768;2023-07-28T12:10:03;0.30;;;0.30;;
11986;SDS011;6053;51.382;6.768;2023-07-28T12:12:41;0.28;;;0.28;;
11986;SDS011;6053;51.382;6.768;2023-07-28T12:15:21;0.30;;;0.30;;
11986;SDS011;6053;51.382;6.768;2023-07-28T12:18:00;0.55;;;0.20;;
11986;SDS011;6053;51.382;6.768;2023-07-28T12:20:34;0.98;;;0.55;;
11986;SDS011;6053;51.382;6.768;2023-07-28T12:23:05;2.10;;;0.60;;
11986;SDS011;6053;51.382;6.768;2023-07-28T12:25:39;0.30;;;0.30;;
11986;SDS011;6053;51.382;6.768;2023-07-28T12:28:07;1.00;;;0.50;;
11986;SDS011;6053;51.382;6.768;2023-07-28T12:30:39;0.30;;;0.20;;
11986;SDS011;6053;51.382;6.768;2023-07-28T12:33:09;0.40;;;0.40;;
11986;SDS011;6053;51.382;6.768;2023-07-28T12:35:43;1.70;;;0.45;;
11986;SDS011;6053;51.382;6.768;2023-07-28T12:38:14;0.43;;;0.30;;
11986;SDS011;6053;51.382;6.768;2023-07-28T12:40:47;0.70;;;0.40;;
11986;SDS011;6053;51.382;6.768;2023-07-28T12:43:19;0.20;;;0.20;;
11986;SDS011;6053;51.382;6.768;2023-07-28T12:45:53;0.73;;;0.20;;
11986;SDS011;6053;51.382;6.768;2023-07-28T12:48:25;0.20;;;0.20;;
11986;SDS011;6053;51.382;6.768;2023-07-28T12:50:57;0.20;;;0.20;;
11986;SDS011;6053;51.382;6.768;2023-07-28T12:53:28;0.40;;;0.13;;
11986;SDS011;6053;51.382;6.768;2023-07-28T12:56:05;0.20;;;0.10;;
11986;SDS011;6053;51.382;6.768;2023-07-28T12:58:33;0.30;;;0.30;;
11986;SDS011;6053;51.382;6.768;2023-07-28T13:01:05;0.30;;;0.30;;
11986;SDS011;6053;51.382;6.768;2023-07-28T13:03:37;0.20;;;0.10;;
11986;SDS011;6053;51.382;6.768;2023-07-28T13:06:06;2.00;;;0.55;;
11986;SDS011;6053;51.382;6.768;2023-07-28T13:08:34;0.70;;;0.20;;
11986;SDS011;6053;51.382;6.768;2023-07-28T13:11:07;0.20;;;0.20;;
11986;SDS011;6053;51.382;6.768;2023-07-28T13:13:39;0.40;;;0.20;;
11986;SDS011;6053;51.382;6.768;2023-07-28T13:16:11;0.10;;;0.10;;
11986;SDS011;6053;51.382;6.768;2023-07-28T13:18:43;0.10;;;0.10;;
11986;SDS011;6053;51.382;6.768;2023-07-28T13:21:15;0.30;;;0.30;;
11986;SDS011;6053;51.382;6.768;2023-07-28T13:23:43;0.45;;;0.20;;
11986;SDS011;6053;51.382;6.768;2023-07-28T13:26:19;0.00;;;0.00;;
11986;SDS011;6053;51.382;6.768;2023-07-28T13:28:48;0.10;;;0.10;;
11986;SDS011;6053;51.382;6.768;2023-07-28T13:31:17;0.88;;;0.25;;
11986;SDS011;6053;51.382;6.768;2023-07-28T13:33:46;0.87;;;0.30;;
11986;SDS011;6053;51.382;6.768;2023-07-28T13:36:14;0.50;;;0.20;;
11986;SDS011;6053;51.382;6.768;2023-07-28T13:38:43;0.40;;;0.10;;
11986;SDS011;6053;51.382;6.768;2023-07-28T13:41:12;0.10;;;0.10;;
11986;SDS011;6053;51.382;6.768;2023-07-28T13:43:49;0.30;;;0.30;;
11986;SDS011;6053;51.382;6.768;2023-07-28T13:46:18;0.20;;;0.20;;
11986;SDS011;6053;51.382;6.768;2023-07-28T13:48:46;0.20;;;0.20;;
11986;SDS011;6053;51.382;6.768;2023-07-28T13:51:19;1.23;;;0.30;;
11986;SDS011;6053;51.382;6.768;2023-07-28T13:54:07;0.47;;;0.20;;
11986;SDS011;6053;51.382;6.768;2023-07-28T13:56:43;0.20;;;0.20;;
11986;SDS011;6053;51.382;6.768;2023-07-28T13:59:16;0.20;;;0.20;;
11986;SDS011;6053;51.382;6.768;2023-07-28T14:01:48;0.55;;;0.20;;
11986;SDS011;6053;51.382;6.768;2023-07-28T14:04:17;0.20;;;0.20;;
11986;SDS011;6053;51.382;6.768;2023-07-28T14:06:48;0.60;;;0.20;;
11986;SDS011;6053;51.382;6.768;2023-07-28T14:09:17;0.68;;;0.15;;
11986;SDS011;6053;51.382;6.768;2023-07-28T14:11:46;0.15;;;0.10;;
11986;SDS011;6053;51.382;6.768;2023-07-28T14:14:19;1.20;;;0.20;;
11986;SDS011;6053;51.382;6.768;2023-07-28T14:17:00;0.20;;;0.20;;
11986;SDS011;6053;51.382;6.768;2023-07-28T14:19:31;0.22;;;0.22;;
11986;SDS011;6053;51.382;6.768;2023-07-28T14:22:03;0.40;;;0.40;;
11986;SDS011;6053;51.382;6.768;2023-07-28T14:24:32;0.70;;;0.20;;
11986;SDS011;6053;51.382;6.768;2023-07-28T14:27:01;0.30;;;0.20;;
11986;SDS011;6053;51.382;6.768;2023-07-28T14:29:31;0.77;;;0.10;;
11986;SDS011;6053;51.382;6.768;2023-07-28T14:32:05;0.20;;;0.20;;
11986;SDS011;6053;51.382;6.768;2023-07-28T14:34:35;0.10;;;0.10;;
11986;SDS011;6053;51.382;6.768;2023-07-28T14:37:06;0.10;;;0.10;;
11986;SDS011;6053;51.382;6.768;2023-07-28T14:39:38;0.10;;;0.10;;
11986;SDS011;6053;51.382;6.768;2023-07-28T14:42:09;0.10;;;0.10;;
11986;SDS011;6053;51.382;6.768;2023-07-28T14:44:39;0.08;;;0.08;;
11986;SDS011;6053;51.382;6.768;2023-07-28T14:47:08;0.40;;;0.20;;
11986;SDS011;6053;51.382;6.768;2023-07-28T14:49:37;0.50;;;0.20;;
11986;SDS011;6053;51.382;6.768;2023-07-28T14:52:06;0.17;;;0.17;;
11986;SDS011;6053;51.382;6.768;2023-07-28T14:54:35;0.80;;;0.30;;
11986;SDS011;6053;51.382;6.768;2023-07-28T14:57:15;0.20;;;0.20;;
11986;SDS011;6053;51.382;6.768;2023-07-28T15:00:01;0.40;;;0.20;;
11986;SDS011;6053;51.382;6.768;2023-07-28T15:02:32;0.70;;;0.20;;
11986;SDS011;6053;51.382;6.768;2023-07-28T15:05:02;0.50;;;0.22;;
11986;SDS011;6053;51.382;6.768;2023-07-28T15:07:34;0.50;;;0.20;;
11986;SDS011;6053;51.382;6.768;2023-07-28T15:10:03;0.47;;;0.30;;
11986;SDS011;6053;51.382;6.768;2023-07-28T15:12:35;0.40;;;0.22;;
11986;SDS011;6053;51.382;6.768;2023-07-28T15:15:11;0.00;;;0.00;;
11986;SDS011;6053;51.382;6.768;2023-07-28T15:17:40;1.60;;;0.20;;
11986;SDS011;6053;51.382;6.768;2023-07-28T15:20:09;0.17;;;0.17;;
11986;SDS011;6053;51.382;6.768;2023-07-28T15:22:44;0.10;;;0.10;;
11986;SDS011;6053;51.382;6.768;2023-07-28T15:25:14;0.17;;;0.17;;
11986;SDS011;6053;51.382;6.768;2023-07-28T15:27:42;1.00;;;0.30;;
11986;SDS011;6053;51.382;6.768;2023-07-28T15:30:16;8.65;;;0.98;;
11986;SDS011;6053;51.382;6.768;2023-07-28T15:32:44;2.50;;;0.50;;
11986;SDS011;6053;51.382;6.768;2023-07-28T15:35:13;0.55;;;0.30;;